РПИ Астана

РПИ Нур-Султан является структурным подразделением дивизиона VATRUS сети VATSIM.

РПИ осуществляет свою деятельность в границах Акмолинской, Карагандинской, Павлодарской, Северо-Казахстанской и Костанайской областей Республики Казахстан.

Схемы и аэронавигационную информацию можно получить на сайте   Казаэронавигация

Средства связи ОВД:

UACN_CTR - Нур-Султан Контроль - 132.800

RU-CEN_FSS - Азия Радар  - 132.850 (РПИ: UACN, UAAA, UAII, UATT, UTAA, UCFM, UTAT, UTDD, UTTR,  UCFO,  UTSD, UTAV,  UTAK)

Руководитель РПИ

Dmitriy Bannov

Инструкторы РПИ
Evgeny Vygornitsky (Supervisor)
Vitaliy Alekseyev (Instructor)
Входит в состав
ЗЦ Центральная Азия

Диспетчеры РПИ

Диспетчер Рейтинг Допуски *
Dmitriy Bannov Instructor UACC_CTR
Alikhan Aidarbek Student UACC_GND
Arman Maxatov Student 2 UACC_TWR
Artem Kuzmenko Student UACC_GND
Kirill Ardatov Student 2 UACC_TWR
Sarsenov Shadiyar Student UACC_GND

Аэропорты РПИ

ICAO Город Название Погода
UAKK Караганда Караганда UAKK 020100Z VRB01MPS CAVOK 11/02 Q1011 NOSIG RMK QFE711/0949
UACC Нур-Султан Нур-Султан UACC 020100Z VRB01MPS CAVOK 13/06 Q1011 NOSIG RMK QFE727/0969
UAKD Жезказган Жезказган UAKD 020100Z 07004MPS CAVOK 16/M00 Q1009 NOSIG RMK QFE723/0965
UAUU Костанай Наримановка UAUU 020100Z 36002MPS CAVOK 13/08 Q1012 NOSIG RMK QFE743/0991